Time;durP1;ratioP1;P1;durP2;ratioP2;P2;SDS_P1;SDS_P2;PMS_P1;PMS_P2;Temp;Humidity;BMP_temperature;BMP_pressure;BME280_temperature;BME280_humidity;BME280_pressure;Samples;Min_cycle;Max_cycle;Signal;HPM_P1;HPM_P2
2022/06/17 00:00:16;;;;;;;5.03;3.53;;;;;17.40;101862.00;;;;10215495;28;20552;-78
2022/06/17 00:05:19;;;;;;;5.60;3.20;;;;;17.40;101853.00;;;;10206913;28;20202;-78
2022/06/17 00:10:24;;;;;;;4.93;4.00;;;;;17.40;101850.00;;;;10229472;29;20214;-78
2022/06/17 00:15:26;;;;;;;5.03;3.43;;;;;17.40;101844.00;;;;10225375;28;20202;-79
2022/06/17 00:20:30;;;;;;;4.80;3.73;;;;;17.40;101854.00;;;;10228561;28;20200;-78
2022/06/17 00:25:34;;;;;;;4.07;3.67;;;;;17.30;101849.00;;;;10240512;28;20242;-78
2022/06/17 00:30:36;;;;;;;7.25;4.00;;;;;17.20;101847.00;;;;10229970;28;20213;-79
2022/06/17 00:35:51;;;;;;;7.15;4.65;;;;;17.10;101851.00;;;;10245152;28;20286;-78
2022/06/17 00:40:53;;;;;;;5.90;4.07;;;;;16.90;101852.00;;;;10229557;28;20292;-78
2022/06/17 00:46:02;;;;;;;4.77;3.77;;;;;16.80;101870.00;;;;10221730;28;20233;-78
2022/06/17 00:51:10;;;;;;;4.50;4.10;;;;;16.70;101870.00;;;;10222830;28;20266;-78
2022/06/17 00:56:23;;;;;;;7.40;4.37;;;;;16.50;101865.00;;;;10245024;28;20194;-79
2022/06/17 01:01:27;;;;;;;5.07;4.00;;;;;16.40;101858.00;;;;10211824;28;20221;-79
2022/06/17 01:06:37;;;;;;;5.73;4.27;;;;;16.20;101845.00;;;;10218611;28;20218;-78
2022/06/17 01:11:41;;;;;;;6.50;4.00;;;;;16.10;101845.00;;;;10219423;28;20209;-78
2022/06/17 01:16:44;;;;;;;7.60;4.23;;;;;16.00;101858.00;;;;10221484;29;20225;-78
2022/06/17 01:22:18;;;;;;;8.17;4.60;;;;;15.90;101852.00;;;;10192882;28;20265;-78
2022/06/17 01:27:24;;;;;;;6.47;4.30;;;;;15.80;101848.00;;;;10212869;28;20261;-79
2022/06/17 01:32:32;;;;;;;5.80;4.07;;;;;15.80;101839.00;;;;10201343;29;20208;-79
2022/06/17 01:37:34;;;;;;;6.30;3.57;;;;;15.90;101837.00;;;;10260657;28;20221;-79
2022/06/17 01:42:38;;;;;;;5.30;3.70;;;;;16.10;101837.00;;;;10220835;28;20194;-78
2022/06/17 01:47:42;;;;;;;5.37;3.83;;;;;16.10;101831.00;;;;10212355;28;20277;-77
2022/06/17 01:52:53;;;;;;;5.63;3.80;;;;;16.20;101832.00;;;;10227175;28;20292;-78
2022/06/17 01:58:01;;;;;;;4.67;3.47;;;;;16.30;101831.00;;;;10227646;28;20732;-78
2022/06/17 02:03:13;;;;;;;5.27;3.50;;;;;16.30;101837.00;;;;10208709;28;20201;-78
2022/06/17 02:08:15;;;;;;;4.53;3.90;;;;;16.30;101836.00;;;;10225522;28;20231;-78
2022/06/17 02:13:19;;;;;;;5.00;3.93;;;;;16.10;101840.00;;;;10211865;29;20201;-78
2022/06/17 02:18:49;;;;;;;4.70;3.90;;;;;15.90;101843.00;;;;10218380;28;20197;-78
2022/06/17 02:23:52;;;;;;;4.30;3.57;;;;;15.80;101852.00;;;;10208522;28;20542;-79
2022/06/17 02:28:55;;;;;;;6.13;3.77;;;;;15.70;101838.00;;;;10223722;28;20291;-78
2022/06/17 02:33:57;;;;;;;5.23;3.53;;;;;15.70;101847.00;;;;10231839;28;20209;-78
2022/06/17 02:39:01;;;;;;;4.23;3.83;;;;;15.70;101847.00;;;;10240250;28;20233;-79
2022/06/17 02:44:20;;;;;;;7.27;3.77;;;;;15.60;101846.00;;;;10226902;28;20208;-77
2022/06/17 02:49:31;;;;;;;6.43;3.63;;;;;15.60;101841.00;;;;10209083;29;20276;-78
2022/06/17 02:54:38;;;;;;;5.43;3.77;;;;;15.60;101845.00;;;;10225047;28;20197;-78
2022/06/17 02:59:44;;;;;;;7.23;3.50;;;;;15.70;101843.00;;;;10235343;28;20190;-79
2022/06/17 03:04:48;;;;;;;6.43;3.60;;;;;15.80;101849.00;;;;10205674;28;20240;-77
2022/06/17 03:09:50;;;;;;;7.23;3.60;;;;;16.00;101842.00;;;;10222382;28;20222;-77
2022/06/17 03:15:06;;;;;;;5.57;3.40;;;;;16.00;101841.00;;;;10224118;28;20196;-78
2022/06/17 03:20:21;;;;;;;6.30;3.63;;;;;16.00;101844.00;;;;10223992;28;20193;-78
2022/06/17 03:25:47;;;;;;;4.83;3.40;;;;;16.00;101854.00;;;;10170718;28;20205;-78
2022/06/17 03:31:20;;;;;;;7.40;4.53;;;;;16.00;101857.00;;;;10246097;28;20209;-78
2022/06/17 03:36:36;;;;;;;5.00;3.93;;;;;16.00;101845.00;;;;10229926;28;20202;-79
2022/06/17 03:42:02;;;;;;;7.33;4.30;;;;;16.10;101837.00;;;;10220894;29;20200;-78
2022/06/17 03:47:14;;;;;;;5.07;4.23;;;;;16.10;101835.00;;;;10230061;29;20198;-78
2022/06/17 03:52:41;;;;;;;8.43;4.37;;;;;16.20;101841.00;;;;10210272;29;20350;-78
2022/06/17 03:57:52;;;;;;;5.30;3.80;;;;;16.20;101842.00;;;;10192747;28;20682;-78
2022/06/17 04:03:04;;;;;;;5.77;4.00;;;;;16.30;101844.00;;;;10230179;28;20197;-77
2022/06/17 04:08:10;;;;;;;4.00;3.70;;;;;16.30;101844.00;;;;10228993;28;20249;-78
2022/06/17 04:13:18;;;;;;;7.80;4.60;;;;;16.40;101833.00;;;;10217504;28;20233;-78
2022/06/17 04:18:34;;;;;;;9.10;4.50;;;;;16.40;101829.00;;;;10228794;28;20195;-79
2022/06/17 04:23:37;;;;;;;4.50;3.70;;;;;16.40;101823.00;;;;10213619;29;20680;-77
2022/06/17 04:28:42;;;;;;;9.73;4.30;;;;;16.50;101815.00;;;;10229715;29;20202;-78
2022/06/17 04:33:51;;;;;;;8.77;3.93;;;;;16.70;101813.00;;;;10217380;29;20613;-78
2022/06/17 04:38:58;;;;;;;5.43;3.37;;;;;17.10;101816.00;;;;10213728;28;20220;-79
2022/06/17 04:44:23;;;;;;;4.77;3.43;;;;;17.30;101823.00;;;;10212941;29;20205;-79
2022/06/17 04:49:30;;;;;;;5.20;3.40;;;;;17.60;101828.00;;;;10226696;29;20268;-78
2022/06/17 04:54:33;;;;;;;4.72;3.10;;;;;17.80;101837.00;;;;10208554;29;20244;-79
2022/06/17 05:00:03;;;;;;;4.22;3.60;;;;;18.10;101842.00;;;;10217799;29;20286;-78
2022/06/17 05:05:15;;;;;;;8.65;3.25;;;;;18.40;101845.00;;;;10197658;28;20202;-79
2022/06/17 05:10:25;;;;;;;8.50;3.10;;;;;18.60;101837.00;;;;10229707;29;20355;-78
2022/06/17 05:15:28;;;;;;;5.25;3.20;;;;;18.80;101828.00;;;;10226715;28;20185;-79
2022/06/17 05:20:30;;;;;;;5.65;2.83;;;;;19.10;101817.00;;;;10221151;28;20529;-77
2022/06/17 05:25:36;;;;;;;7.20;3.00;;;;;19.40;101819.00;;;;10239598;28;20391;-78
2022/06/17 05:30:41;;;;;;;4.88;2.90;;;;;19.60;101827.00;;;;10227617;28;20198;-79
2022/06/17 05:35:48;;;;;;;4.80;3.20;;;;;19.90;101829.00;;;;10190566;28;20190;-78
2022/06/17 05:40:51;;;;;;;5.38;3.72;;;;;20.10;101820.00;;;;10238891;28;20200;-79
2022/06/17 05:45:53;;;;;;;3.17;2.75;;;;;20.20;101811.00;;;;10240804;28;20212;-78
2022/06/17 05:51:18;;;;;;;5.32;2.60;;;;;20.60;101806.00;;;;10209077;28;20225;-78
2022/06/17 05:56:35;;;;;;;6.65;2.95;;;;;21.10;101792.00;;;;10232885;29;20196;-79
2022/06/17 06:01:38;;;;;;;9.05;2.80;;;;;21.50;101799.00;;;;10207348;28;20221;-78
2022/06/17 06:06:41;;;;;;;5.90;3.30;;;;;21.90;101795.00;;;;10255789;28;20692;-78
2022/06/17 06:11:44;;;;;;;4.15;2.70;;;;;22.20;101804.00;;;;10212429;28;20193;-78
2022/06/17 06:16:49;;;;;;;5.95;2.80;;;;;22.20;101816.00;;;;10211596;28;20222;-78
2022/06/17 06:21:52;;;;;;;4.07;2.70;;;;;21.70;101812.00;;;;10212472;28;20202;-78
2022/06/17 06:26:55;;;;;;;4.40;2.65;;;;;22.30;101813.00;;;;10203673;28;20216;-78
2022/06/17 06:32:04;;;;;;;5.00;2.50;;;;;23.60;101823.00;;;;10202248;28;20773;-77
2022/06/17 06:37:30;;;;;;;5.22;2.40;;;;;24.60;101821.00;;;;10220025;28;20233;-78
2022/06/17 06:42:32;;;;;;;4.68;2.13;;;;;25.30;101812.00;;;;10193475;29;20190;-78
2022/06/17 06:47:55;;;;;;;5.05;2.60;;;;;25.70;101800.00;;;;10202422;29;20708;-80
2022/06/17 06:52:58;;;;;;;7.55;2.83;;;;;26.20;101793.00;;;;10215313;28;20197;-80
2022/06/17 06:58:12;;;;;;;4.00;2.33;;;;;26.30;101803.00;;;;10235179;28;20222;-79
2022/06/17 07:03:22;;;;;;;3.70;2.78;;;;;25.30;101793.00;;;;10227310;28;20202;-79
2022/06/17 07:08:26;;;;;;;4.30;2.40;;;;;26.00;101794.00;;;;10195868;29;20233;-78
2022/06/17 07:13:31;;;;;;;4.35;2.55;;;;;26.40;101815.00;;;;10224123;29;20205;-79
2022/06/17 07:18:34;;;;;;;4.25;2.80;;;;;27.10;101813.00;;;;10215212;28;20193;-79
2022/06/17 07:23:45;;;;;;;3.10;2.15;;;;;27.80;101813.00;;;;10232813;28;20194;-79
2022/06/17 07:28:51;;;;;;;3.95;2.08;;;;;28.20;101816.00;;;;10223459;28;20259;-78
2022/06/17 07:33:56;;;;;;;5.57;2.00;;;;;28.70;101804.00;;;;10243174;29;20202;-79
2022/06/17 07:44:19;;;;;;;2.80;1.90;;;;;29.20;101795.00;;;;10238510;28;20804;-79
2022/06/17 07:49:21;;;;;;;2.20;2.00;;;;;29.70;101807.00;;;;10243295;28;20288;-79
2022/06/17 07:54:23;;;;;;;4.72;2.20;;;;;30.40;101784.00;;;;10256336;28;20202;-78
2022/06/17 07:59:28;;;;;;;3.33;2.10;;;;;30.70;101785.00;;;;10208997;28;20269;-78
2022/06/17 08:04:30;;;;;;;2.40;1.95;;;;;30.70;101777.00;;;;10215940;28;20200;-78
2022/06/17 08:09:32;;;;;;;4.32;1.83;;;;;31.30;101774.00;;;;10225372;28;20221;-79
2022/06/17 08:14:35;;;;;;;3.70;2.05;;;;;31.80;101798.00;;;;10209815;28;20573;-79
2022/06/17 08:19:37;;;;;;;4.30;2.10;;;;;32.10;101805.00;;;;10220784;28;20242;-79
2022/06/17 08:24:39;;;;;;;3.92;1.90;;;;;32.50;101819.00;;;;10255822;28;20186;-79
2022/06/17 08:29:47;;;;;;;2.95;1.70;;;;;32.60;101802.00;;;;10235749;29;20685;-79
2022/06/17 08:34:51;;;;;;;2.97;2.00;;;;;33.20;101801.00;;;;10238239;28;20190;-79
2022/06/17 08:39:54;;;;;;;5.43;1.95;;;;;33.70;101804.00;;;;10223099;28;20213;-78
2022/06/17 08:45:29;;;;;;;3.95;1.73;;;;;33.80;101796.00;;;;10236468;28;20315;-78
2022/06/17 08:50:40;;;;;;;4.03;1.83;;;;;34.20;101793.00;;;;10220649;29;20204;-78
2022/06/17 08:56:18;;;;;;;6.45;2.08;;;;;34.50;101789.00;;;;10249596;28;20186;-79
2022/06/17 09:01:44;;;;;;;4.18;2.10;;;;;34.70;101794.00;;;;10186000;28;20204;-79
2022/06/17 09:06:55;;;;;;;2.72;1.50;;;;;35.10;101796.00;;;;10208187;28;20226;-79
2022/06/17 09:12:25;;;;;;;2.20;1.80;;;;;35.20;101814.00;;;;10168733;29;20221;-79
2022/06/17 09:17:41;;;;;;;5.93;2.05;;;;;35.50;101802.00;;;;10185354;29;20206;-78
2022/06/17 09:22:55;;;;;;;3.15;2.05;;;;;35.80;101800.00;;;;10231120;29;20198;-78
2022/06/17 09:27:58;;;;;;;4.03;1.90;;;;;35.90;101800.00;;;;10213679;29;20220;-78
2022/06/17 09:33:22;;;;;;;5.18;2.00;;;;;36.20;101794.00;;;;10219569;29;20229;-78
2022/06/17 09:38:26;;;;;;;3.28;1.70;;;;;36.50;101792.00;;;;10224473;29;20272;-78
2022/06/17 09:43:46;;;;;;;2.10;1.65;;;;;36.50;101786.00;;;;10208308;29;20293;-78
2022/06/17 09:49:08;;;;;;;4.85;1.90;;;;;36.90;101785.00;;;;10208344;29;20225;-78
2022/06/17 09:54:25;;;;;;;2.95;2.00;;;;;37.40;101783.00;;;;10239554;29;20201;-78
2022/06/17 09:59:55;;;;;;;7.70;2.08;;;;;37.70;101781.00;;;;10232382;29;20189;-78
2022/06/17 10:04:59;;;;;;;5.25;2.20;;;;;37.90;101785.00;;;;10222231;29;20193;-79
2022/06/17 10:10:31;;;;;;;4.80;2.03;;;;;38.00;101791.00;;;;10238146;29;20213;-78
2022/06/17 10:15:36;;;;;;;7.53;2.03;;;;;38.20;101805.00;;;;10239031;29;20189;-78
2022/06/17 10:20:56;;;;;;;2.13;1.27;;;;;38.10;101801.00;;;;10222564;29;20558;-78
2022/06/17 10:26:35;;;;;;;3.42;1.60;;;;;38.10;101774.00;;;;10223029;28;20235;-79
2022/06/17 10:31:47;;;;;;;7.43;1.38;;;;;38.00;101778.00;;;;10238438;29;20285;-79
2022/06/17 10:36:52;;;;;;;2.72;1.50;;;;;38.20;101774.00;;;;10239205;28;20197;-78
2022/06/17 10:41:56;;;;;;;2.25;1.67;;;;;38.30;101766.00;;;;10231401;29;20225;-78
2022/06/17 10:47:29;;;;;;;3.15;1.42;;;;;38.50;101747.00;;;;10230731;29;20224;-79
2022/06/17 10:53:05;;;;;;;7.93;1.65;;;;;38.70;101747.00;;;;10230136;29;20197;-79
2022/06/17 10:58:20;;;;;;;1.75;1.55;;;;;38.40;101749.00;;;;10202170;29;20232;-78
2022/06/17 11:03:28;;;;;;;4.53;1.60;;;;;38.40;101746.00;;;;10246215;29;20275;-79
2022/06/17 11:08:35;;;;;;;6.53;1.88;;;;;38.80;101735.00;;;;10196769;28;20225;-79
2022/06/17 11:13:37;;;;;;;4.45;1.40;;;;;38.60;101730.00;;;;10214099;29;20220;-79
2022/06/17 11:18:43;;;;;;;2.67;1.50;;;;;38.80;101737.00;;;;10214193;29;20287;-78
2022/06/17 11:23:49;;;;;;;3.72;1.48;;;;;38.80;101735.00;;;;10206163;29;20228;-79
2022/06/17 11:28:55;;;;;;;6.15;1.60;;;;;38.80;101723.00;;;;10191137;29;20681;-78
2022/06/17 11:34:01;;;;;;;1.48;1.27;;;;;38.60;101709.00;;;;10200701;29;20797;-79
2022/06/17 11:39:28;;;;;;;1.80;1.50;;;;;39.00;101710.00;;;;10228221;29;20312;-79
2022/06/17 11:44:31;;;;;;;2.47;1.50;;;;;38.80;101723.00;;;;10212769;29;20200;-79
2022/06/17 11:49:35;;;;;;;6.28;1.75;;;;;39.30;101714.00;;;;10227425;28;20209;-79
2022/06/17 11:54:48;;;;;;;4.82;1.40;;;;;39.70;101707.00;;;;10228116;29;20236;-78
2022/06/17 11:59:54;;;;;;;2.53;1.42;;;;;39.80;101709.00;;;;10212028;29;20196;-78
2022/06/17 12:05:07;;;;;;;4.72;1.60;;;;;39.70;101713.00;;;;10227037;29;20193;-79
2022/06/17 12:10:25;;;;;;;4.28;1.40;;;;;39.70;101712.00;;;;10199136;29;20297;-78
2022/06/17 12:15:42;;;;;;;3.55;1.25;;;;;39.50;101714.00;;;;10203228;29;20565;-79
2022/06/17 12:21:09;;;;;;;4.55;1.20;;;;;39.70;101707.00;;;;10203603;29;20597;-79
2022/06/17 12:26:29;;;;;;;3.85;1.45;;;;;39.60;101692.00;;;;10188207;29;20670;-79
2022/06/17 12:31:44;;;;;;;3.97;1.38;;;;;39.60;101694.00;;;;10219620;29;20201;-79
2022/06/17 12:37:09;;;;;;;2.25;1.30;;;;;39.80;101687.00;;;;10226755;29;20220;-79
2022/06/17 12:42:26;;;;;;;2.25;1.30;;;;;39.80;101676.00;;;;10199926;29;20205;-79
2022/06/17 12:47:47;;;;;;;3.03;1.25;;;;;39.70;101673.00;;;;10202946;29;20219;-79
2022/06/17 12:53:14;;;;;;;2.05;1.13;;;;;39.80;101663.00;;;;10219950;29;20565;-79
2022/06/17 12:58:24;;;;;;;1.50;1.40;;;;;40.00;101659.00;;;;10211958;29;20196;-79
2022/06/17 13:04:00;;;;;;;1.58;1.30;;;;;39.90;101657.00;;;;10223468;29;20193;-79
2022/06/17 13:09:23;;;;;;;4.32;1.20;;;;;39.80;101653.00;;;;10209615;28;20240;-79
2022/06/17 13:14:46;;;;;;;3.80;1.00;;;;;39.50;101649.00;;;;10207865;29;20280;-79
2022/06/17 13:20:10;;;;;;;2.95;1.10;;;;;39.40;101637.00;;;;10208938;29;20666;-79
2022/06/17 13:25:46;;;;;;;5.65;1.20;;;;;39.20;101632.00;;;;10256864;29;20221;-79
2022/06/17 13:30:55;;;;;;;6.82;1.65;;;;;38.90;101625.00;;;;10223589;29;20203;-79
2022/06/17 13:36:03;;;;;;;1.77;1.30;;;;;39.00;101615.00;;;;10224226;29;20217;-79
2022/06/17 13:41:15;;;;;;;4.53;1.38;;;;;39.00;101624.00;;;;10255812;29;20190;-79
2022/06/17 13:46:25;;;;;;;1.88;1.40;;;;;39.20;101606.00;;;;10215015;29;20270;-80
2022/06/17 13:52:15;;;;;;;2.33;1.25;;;;;39.60;101603.00;;;;10214875;29;20197;-79
2022/06/17 13:57:25;;;;;;;5.18;1.52;;;;;40.10;101601.00;;;;10184775;29;20263;-79
2022/06/17 14:02:50;;;;;;;2.88;1.38;;;;;40.50;101614.00;;;;10222219;29;20212;-79
2022/06/17 14:08:09;;;;;;;3.88;1.25;;;;;40.40;101604.00;;;;10202451;28;20248;-79
2022/06/17 14:13:40;;;;;;;2.45;1.40;;;;;42.30;101598.00;;;;10213149;29;20193;-79
2022/06/17 14:18:54;;;;;;;2.25;1.23;;;;;43.20;101596.00;;;;10202382;29;20221;-79
2022/06/17 14:23:59;;;;;;;3.83;1.27;;;;;42.70;101601.00;;;;10222248;29;20185;-79
2022/06/17 14:29:14;;;;;;;2.70;1.30;;;;;43.30;101595.00;;;;10205553;29;20229;-79
2022/06/17 14:34:20;;;;;;;2.85;1.45;;;;;43.40;101585.00;;;;10221502;29;20189;-80
2022/06/17 14:39:28;;;;;;;1.50;1.20;;;;;44.10;101573.00;;;;10187402;29;20284;-79
2022/06/17 14:44:32;;;;;;;1.27;1.10;;;;;44.10;101575.00;;;;10165836;29;20201;-79
2022/06/17 14:49:42;;;;;;;4.35;1.38;;;;;44.60;101569.00;;;;10180380;29;20228;-79
2022/06/17 14:54:58;;;;;;;2.55;1.48;;;;;43.60;101568.00;;;;10224207;29;20194;-79
2022/06/17 15:00:17;;;;;;;1.88;1.45;;;;;43.70;101557.00;;;;10238697;29;20185;-79
2022/06/17 15:05:27;;;;;;;7.28;1.70;;;;;44.50;101550.00;;;;10231328;29;20250;-79
2022/06/17 15:10:33;;;;;;;4.05;1.63;;;;;44.60;101550.00;;;;10197702;29;20583;-79
2022/06/17 15:15:39;;;;;;;1.83;1.38;;;;;44.90;101544.00;;;;10199890;29;20202;-80
2022/06/17 15:20:45;;;;;;;2.08;1.25;;;;;44.70;101526.00;;;;10230187;29;20284;-79
2022/06/17 15:26:05;;;;;;;3.72;1.40;;;;;44.90;101535.00;;;;10227227;29;20201;-79
2022/06/17 15:31:13;;;;;;;2.00;1.20;;;;;44.90;101525.00;;;;10214597;29;20231;-80
2022/06/17 15:36:23;;;;;;;3.20;1.08;;;;;41.80;101532.00;;;;10212854;29;20196;-79
2022/06/17 15:41:31;;;;;;;3.70;1.20;;;;;39.00;101523.00;;;;10214256;29;20581;-79
2022/06/17 15:46:37;;;;;;;4.95;1.30;;;;;37.70;101518.00;;;;10213301;29;20215;-79
2022/06/17 15:51:44;;;;;;;2.97;1.27;;;;;37.00;101528.00;;;;10231446;29;20260;-79
2022/06/17 15:56:50;;;;;;;5.50;1.70;;;;;35.80;101522.00;;;;10245616;29;20190;-79
2022/06/17 16:01:59;;;;;;;4.22;1.15;;;;;35.40;101508.00;;;;10217259;29;20253;-78
2022/06/17 16:07:18;;;;;;;2.90;1.15;;;;;35.60;101500.00;;;;10213034;28;20981;-79
2022/06/17 16:12:30;;;;;;;3.53;1.25;;;;;34.90;101492.00;;;;10244496;29;20225;-79
2022/06/17 16:17:36;;;;;;;2.30;1.10;;;;;34.40;101508.00;;;;10221973;29;20222;-79
2022/06/17 16:22:38;;;;;;;1.88;1.08;;;;;34.20;101495.00;;;;10205692;29;20265;-78
2022/06/17 16:27:55;;;;;;;1.55;1.10;;;;;33.70;101488.00;;;;10208548;29;20656;-78
2022/06/17 16:33:01;;;;;;;5.40;0.95;;;;;33.40;101488.00;;;;10207805;29;20193;-79
2022/06/17 16:38:03;;;;;;;6.55;1.15;;;;;33.10;101478.00;;;;10227466;29;20293;-79
2022/06/17 16:48:56;;;;;;;0.80;0.80;;;;;32.60;101464.00;;;;10245064;29;20281;-78
2022/06/17 16:54:01;;;;;;;2.80;1.40;;;;;32.30;101455.00;;;;10245456;29;20261;-78
2022/06/17 16:59:03;;;;;;;2.13;1.17;;;;;32.20;101461.00;;;;10227352;29;20193;-79
2022/06/17 17:04:05;;;;;;;4.60;1.52;;;;;32.10;101459.00;;;;10244278;29;20280;-79
2022/06/17 17:09:08;;;;;;;3.65;1.08;;;;;31.90;101457.00;;;;10212871;28;20234;-79
2022/06/17 17:14:11;;;;;;;4.55;1.67;;;;;31.80;101460.00;;;;10223993;29;20197;-79
2022/06/17 17:19:13;;;;;;;4.65;1.10;;;;;31.70;101463.00;;;;10203786;29;20574;-79
2022/06/17 17:24:21;;;;;;;3.13;1.20;;;;;31.60;101457.00;;;;10187689;29;20221;-79
2022/06/17 17:29:24;;;;;;;3.80;1.13;;;;;31.40;101457.00;;;;10218204;29;20218;-79
2022/06/17 17:34:26;;;;;;;2.85;1.10;;;;;31.20;101449.00;;;;10211119;29;20233;-79
2022/06/17 17:39:28;;;;;;;4.07;1.30;;;;;31.00;101460.00;;;;10241500;29;20278;-80
2022/06/17 17:44:30;;;;;;;6.18;1.50;;;;;30.80;101453.00;;;;10210264;29;20261;-79
2022/06/17 17:49:46;;;;;;;2.58;1.20;;;;;30.60;101456.00;;;;10222693;29;20220;-79
2022/06/17 17:54:48;;;;;;;2.30;1.25;;;;;30.40;101451.00;;;;10208298;29;20748;-78
2022/06/17 17:59:59;;;;;;;3.83;1.27;;;;;30.30;101438.00;;;;10241316;29;20193;-78
2022/06/17 18:05:02;;;;;;;3.70;1.60;;;;;30.30;101442.00;;;;10224992;29;20244;-79
2022/06/17 18:10:06;;;;;;;2.38;1.13;;;;;30.20;101434.00;;;;10236763;29;20218;-78
2022/06/17 18:15:11;;;;;;;1.02;0.95;;;;;30.30;101446.00;;;;10225254;29;20290;-79
2022/06/17 18:20:16;;;;;;;1.83;1.20;;;;;30.30;101448.00;;;;10239124;29;20634;-79
2022/06/17 18:25:20;;;;;;;3.00;1.30;;;;;30.20;101454.00;;;;10240342;29;20224;-78
2022/06/17 18:30:23;;;;;;;2.40;1.10;;;;;30.10;101454.00;;;;10223483;29;20719;-79
2022/06/17 18:35:34;;;;;;;2.53;1.42;;;;;30.00;101457.00;;;;10223156;29;20676;-79
2022/06/17 18:40:37;;;;;;;2.35;1.15;;;;;29.80;101458.00;;;;10206503;29;20673;-79
2022/06/17 18:45:40;;;;;;;1.92;1.27;;;;;29.60;101457.00;;;;10222973;29;20273;-79
2022/06/17 18:50:44;;;;;;;1.95;1.50;;;;;29.40;101459.00;;;;10206353;29;20221;-79
2022/06/17 18:55:47;;;;;;;1.48;1.38;;;;;29.20;101465.00;;;;10174402;29;20657;-79
2022/06/17 19:00:49;;;;;;;2.65;1.80;;;;;29.00;101457.00;;;;10206996;29;20245;-79
2022/06/17 19:05:51;;;;;;;2.42;1.42;;;;;28.80;101446.00;;;;10210584;29;20241;-79
2022/06/17 19:21:43;;;;;;;2.63;1.40;;;;;28.20;101444.00;;;;10245618;29;20205;-79
2022/06/17 19:26:45;;;;;;;3.40;1.77;;;;;27.90;101443.00;;;;10230346;29;20321;-79
2022/06/17 19:31:47;;;;;;;7.30;2.40;;;;;27.80;101444.00;;;;10230744;29;20213;-79
2022/06/17 19:36:50;;;;;;;5.93;1.73;;;;;27.60;101432.00;;;;10228098;29;20217;-79
2022/06/17 19:41:56;;;;;;;2.20;1.30;;;;;27.40;101428.00;;;;10218468;29;20230;-78
2022/06/17 19:47:05;;;;;;;4.18;1.80;;;;;27.10;101429.00;;;;10206050;29;20246;-79
2022/06/17 19:52:35;;;;;;;3.13;1.70;;;;;26.90;101425.00;;;;10220837;29;20281;-78
2022/06/17 19:57:37;;;;;;;1.92;1.50;;;;;26.70;101425.00;;;;10257167;29;20305;-78
2022/06/17 20:02:41;;;;;;;4.03;2.05;;;;;26.50;101425.00;;;;10245201;29;20208;-79
2022/06/17 20:07:43;;;;;;;3.95;2.17;;;;;26.30;101437.00;;;;10244990;29;20483;-79
2022/06/17 20:12:45;;;;;;;7.82;2.17;;;;;26.10;101430.00;;;;10244015;29;20205;-79
2022/06/17 20:17:52;;;;;;;4.10;2.78;;;;;26.00;101423.00;;;;10196032;29;20277;-79
2022/06/17 20:22:56;;;;;;;4.93;3.78;;;;;25.80;101432.00;;;;10244091;29;20190;-79
2022/06/17 20:27:58;;;;;;;5.47;2.08;;;;;25.70;101418.00;;;;10227817;29;20304;-78
2022/06/17 20:33:00;;;;;;;2.45;2.15;;;;;25.50;101418.00;;;;10227398;29;20297;-79
2022/06/17 20:38:04;;;;;;;1.90;1.63;;;;;25.40;101415.00;;;;10236700;29;20191;-79
2022/06/17 20:43:07;;;;;;;1.85;1.60;;;;;25.20;101416.00;;;;10188120;29;20269;-78
2022/06/17 20:53:32;;;;;;;2.88;1.70;;;;;24.90;101422.00;;;;10233815;29;20196;-79
2022/06/17 20:58:34;;;;;;;5.32;1.90;;;;;24.80;101422.00;;;;10195569;29;20260;-78
2022/06/17 21:03:41;;;;;;;2.72;1.80;;;;;24.70;101427.00;;;;10217578;28;20205;-79
2022/06/17 21:08:46;;;;;;;4.03;2.08;;;;;24.70;101426.00;;;;10220638;28;20237;-78
2022/06/17 21:13:48;;;;;;;3.25;1.98;;;;;24.60;101419.00;;;;10226866;29;20273;-79
2022/06/17 21:18:50;;;;;;;5.25;2.08;;;;;24.50;101412.00;;;;10216386;29;20199;-78
2022/06/17 21:23:54;;;;;;;3.45;2.13;;;;;24.50;101406.00;;;;10212227;29;20202;-78
2022/06/17 21:28:59;;;;;;;2.33;2.00;;;;;24.30;101406.00;;;;10202631;29;20246;-77
2022/06/17 21:34:01;;;;;;;6.68;2.38;;;;;24.20;101401.00;;;;10214934;29;20553;-77
2022/06/17 21:39:06;;;;;;;4.28;2.10;;;;;24.00;101404.00;;;;10227781;29;20197;-78
2022/06/17 21:44:15;;;;;;;2.03;1.83;;;;;23.90;101397.00;;;;10223083;29;20221;-78
2022/06/17 21:49:17;;;;;;;5.88;2.00;;;;;23.90;101402.00;;;;10209325;29;20218;-77
2022/06/17 21:54:35;;;;;;;2.60;2.15;;;;;24.00;101407.00;;;;10203669;29;20186;-78
2022/06/17 21:59:42;;;;;;;5.45;2.45;;;;;23.90;101407.00;;;;10238682;29;20276;-78
2022/06/17 22:04:45;;;;;;;4.85;2.20;;;;;23.80;101409.00;;;;10230965;29;20712;-78
2022/06/17 22:09:53;;;;;;;4.85;2.30;;;;;23.80;101405.00;;;;10243194;29;20217;-79
2022/06/17 22:14:55;;;;;;;4.75;2.22;;;;;23.70;101404.00;;;;10226256;29;20245;-78
2022/06/17 22:19:57;;;;;;;3.65;2.63;;;;;23.70;101409.00;;;;10227149;29;20197;-79
2022/06/17 22:25:00;;;;;;;5.97;2.13;;;;;23.60;101405.00;;;;10210517;29;20288;-79
2022/06/17 22:30:03;;;;;;;3.28;2.33;;;;;23.40;101397.00;;;;10225824;29;20237;-78
2022/06/17 22:35:21;;;;;;;2.50;2.30;;;;;23.30;101402.00;;;;10222900;29;20274;-78
2022/06/17 22:40:31;;;;;;;4.32;2.40;;;;;23.30;101398.00;;;;10225874;29;20256;-78
2022/06/17 22:45:40;;;;;;;4.25;2.08;;;;;23.30;101398.00;;;;10208756;29;20206;-78
2022/06/17 22:50:45;;;;;;;3.13;2.25;;;;;23.20;101404.00;;;;10225524;29;20625;-79
2022/06/17 22:55:48;;;;;;;2.30;2.10;;;;;23.20;101403.00;;;;10194188;29;20237;-79
2022/06/17 23:00:52;;;;;;;3.40;2.47;;;;;23.00;101402.00;;;;10241173;29;20547;-78
2022/06/17 23:05:55;;;;;;;3.92;2.85;;;;;22.90;101396.00;;;;10224713;29;20297;-79
2022/06/17 23:10:57;;;;;;;4.47;2.40;;;;;22.80;101399.00;;;;10225132;29;20249;-78
2022/06/17 23:16:01;;;;;;;2.90;2.30;;;;;22.70;101418.00;;;;10225436;29;20553;-78
2022/06/17 23:21:05;;;;;;;4.50;2.80;;;;;22.70;101408.00;;;;10204780;29;20199;-78
2022/06/17 23:26:10;;;;;;;4.53;2.80;;;;;22.60;101410.00;;;;10184115;29;20214;-78
2022/06/17 23:31:18;;;;;;;4.72;2.50;;;;;22.70;101411.00;;;;10203885;29;20230;-78
2022/06/17 23:36:22;;;;;;;5.82;2.60;;;;;22.60;101411.00;;;;10208301;29;20284;-78
2022/06/17 23:41:25;;;;;;;2.78;2.45;;;;;22.60;101416.00;;;;10223441;29;20265;-78
2022/06/17 23:46:28;;;;;;;3.25;2.28;;;;;22.60;101409.00;;;;10228368;29;20194;-78
2022/06/17 23:51:35;;;;;;;4.03;3.10;;;;;22.50;101412.00;;;;10245982;29;20229;-79
2022/06/17 23:56:38;;;;;;;7.35;3.13;;;;;22.50;101403.00;;;;10205861;29;20205;-79
